Time;durP1;ratioP1;P1;durP2;ratioP2;P2;SDS_P1;SDS_P2;PMS_P1;PMS_P2;Temp;Humidity;BMP_temperature;BMP_pressure;BME280_temperature;BME280_humidity;BME280_pressure;Samples;Min_cycle;Max_cycle;Signal;HPM_P1;HPM_P2
2022/08/10 00:01:04;;;;;;;10.90;9.73;;;21.20;99.90;;;;;;4968604;28;20045;-50
2022/08/10 00:03:29;;;;;;;12.65;10.45;;;21.20;99.90;;;;;;4953431;28;20065;-51
2022/08/10 00:05:55;;;;;;;13.02;11.10;;;21.20;99.90;;;;;;5000987;28;20121;-49
2022/08/10 00:08:24;;;;;;;10.98;9.27;;;21.30;99.90;;;;;;4982395;28;20065;-50
2022/08/10 00:10:54;;;;;;;13.10;10.98;;;21.20;99.90;;;;;;4999838;28;20042;-50
2022/08/10 00:13:21;;;;;;;12.95;10.27;;;21.10;99.90;;;;;;5001904;28;20041;-50
2022/08/10 00:15:47;;;;;;;11.52;10.35;;;21.10;99.90;;;;;;5002380;28;20042;-50
2022/08/10 00:18:12;;;;;;;11.27;10.07;;;21.00;99.90;;;;;;5040186;28;20400;-49
2022/08/10 00:20:38;;;;;;;12.45;10.60;;;21.00;99.90;;;;;;5045660;28;20113;-50
2022/08/10 00:23:04;;;;;;;13.50;11.30;;;21.10;99.90;;;;;;4993080;28;20037;-49
2022/08/10 00:25:30;;;;;;;12.82;8.90;;;21.10;99.90;;;;;;5034232;28;20034;-50
2022/08/10 00:27:56;;;;;;;8.38;7.57;;;21.10;99.90;;;;;;5043410;28;20104;-49
2022/08/10 00:30:21;;;;;;;8.05;7.20;;;21.10;99.90;;;;;;5044839;28;20036;-49
2022/08/10 00:32:47;;;;;;;9.90;7.90;;;21.10;99.90;;;;;;5020321;28;20088;-50
2022/08/10 00:35:13;;;;;;;8.10;7.30;;;21.20;99.90;;;;;;5052183;28;20033;-50
2022/08/10 00:37:38;;;;;;;8.63;7.25;;;21.20;99.90;;;;;;5022248;28;20041;-50
2022/08/10 00:40:05;;;;;;;8.68;7.82;;;21.20;99.90;;;;;;5049171;28;20040;-50
2022/08/10 00:42:31;;;;;;;9.32;7.00;;;21.20;99.90;;;;;;5009622;28;20111;-50
2022/08/10 00:44:57;;;;;;;9.00;7.45;;;21.20;99.90;;;;;;5046990;28;20036;-49
2022/08/10 00:47:23;;;;;;;7.93;7.22;;;21.20;99.90;;;;;;4984089;28;20044;-49
2022/08/10 00:49:49;;;;;;;8.20;7.32;;;21.10;99.90;;;;;;5037057;28;20132;-50
2022/08/10 00:52:16;;;;;;;9.25;7.20;;;21.10;99.90;;;;;;5040703;28;20056;-50
2022/08/10 00:54:42;;;;;;;8.55;6.68;;;21.10;99.90;;;;;;5042364;28;20453;-50
2022/08/10 00:57:10;;;;;;;7.30;6.50;;;21.10;99.90;;;;;;5036473;28;20167;-50
2022/08/10 00:59:36;;;;;;;8.27;6.95;;;20.90;99.90;;;;;;5041189;28;20021;-50
2022/08/10 01:02:02;;;;;;;9.63;6.82;;;;;;;;;;5019599;28;20374;-50
2022/08/10 01:04:28;;;;;;;8.57;6.40;;;21.00;99.90;;;;;;5043589;28;20029;-50
2022/08/10 01:07:23;;;;;;;7.43;6.72;;;20.90;99.90;;;;;;5038223;28;20045;-49
2022/08/10 01:10:15;;;;;;;11.52;6.75;;;20.90;99.90;;;;;;5044905;28;20457;-50
2022/08/10 01:13:00;;;;;;;8.43;6.38;;;;;;;;;;5042543;28;20033;-50
2022/08/10 01:15:28;;;;;;;9.02;6.80;;;20.90;99.90;;;;;;5041433;28;20100;-49
2022/08/10 01:18:14;;;;;;;9.23;7.28;;;20.90;99.90;;;;;;5041691;28;20064;-49
2022/08/10 01:20:58;;;;;;;7.90;7.10;;;21.00;99.90;;;;;;5042357;28;20048;-49
2022/08/10 01:23:50;;;;;;;7.10;6.40;;;20.90;99.90;;;;;;5043219;28;20037;-49
2022/08/10 01:26:22;;;;;;;10.88;7.30;;;;;;;;;;5043786;28;20036;-49
2022/08/10 01:28:57;;;;;;;7.47;6.78;;;19.30;99.90;;;;;;5043542;28;20597;-50
2022/08/10 01:31:29;;;;;;;8.98;7.18;;;20.70;99.90;;;;;;5033569;28;20068;-50
2022/08/10 01:34:01;;;;;;;9.45;7.63;;;20.70;99.90;;;;;;5041846;28;20017;-49
2022/08/10 01:36:40;;;;;;;7.50;6.63;;;20.80;99.90;;;;;;5040685;28;20039;-50
2022/08/10 01:39:07;;;;;;;7.20;6.50;;;20.70;99.90;;;;;;5048959;28;20655;-49
2022/08/10 01:41:41;;;;;;;7.45;6.65;;;20.70;99.90;;;;;;5045849;28;20420;-49
2022/08/10 01:44:13;;;;;;;8.57;6.50;;;20.70;99.90;;;;;;5042930;28;20048;-49
2022/08/10 01:46:44;;;;;;;10.75;6.57;;;20.80;99.90;;;;;;5032849;28;20116;-49
2022/08/10 01:49:12;;;;;;;6.30;5.67;;;20.80;99.90;;;;;;5040836;28;20491;-50
2022/08/10 01:51:43;;;;;;;9.27;6.93;;;20.70;99.90;;;;;;5043558;28;20063;-49
2022/08/10 01:54:12;;;;;;;8.93;6.93;;;20.70;99.90;;;;;;5043751;28;20037;-50
2022/08/10 01:56:42;;;;;;;9.10;6.47;;;20.70;99.90;;;;;;5041173;28;20037;-49
2022/08/10 01:59:19;;;;;;;8.70;7.13;;;20.60;99.90;;;;;;5031857;28;20076;-50
2022/08/10 02:01:48;;;;;;;7.90;6.63;;;20.50;99.90;;;;;;5043120;28;20025;-49
2022/08/10 02:04:16;;;;;;;8.40;6.80;;;20.50;99.90;;;;;;5034736;28;20132;-49
2022/08/10 02:06:50;;;;;;;7.20;6.38;;;20.50;99.90;;;;;;5040574;28;20048;-49
2022/08/10 02:09:33;;;;;;;8.02;6.93;;;20.50;99.90;;;;;;5040217;28;20037;-49
2022/08/10 02:12:05;;;;;;;8.70;7.47;;;20.50;99.90;;;;;;5043250;28;20040;-49
2022/08/10 02:14:35;;;;;;;9.27;7.40;;;20.50;99.90;;;;;;5040623;28;20083;-50
2022/08/10 02:17:05;;;;;;;8.02;7.18;;;20.50;99.90;;;;;;5034612;28;20120;-49
2022/08/10 02:19:33;;;;;;;8.30;7.50;;;20.40;99.90;;;;;;5042495;28;20132;-49
2022/08/10 02:22:00;;;;;;;9.90;7.82;;;20.40;99.90;;;;;;5043155;28;20037;-49
2022/08/10 02:24:27;;;;;;;8.43;7.43;;;20.40;99.90;;;;;;5018701;28;20061;-49
2022/08/10 02:26:55;;;;;;;7.65;6.85;;;20.40;99.90;;;;;;5045688;28;20025;-49
2022/08/10 02:29:22;;;;;;;8.30;6.45;;;20.50;99.90;;;;;;5041356;28;20056;-47
2022/08/10 02:31:49;;;;;;;8.55;7.20;;;20.50;99.90;;;;;;5034561;28;20087;-48
2022/08/10 02:34:15;;;;;;;7.60;5.93;;;20.50;99.90;;;;;;5043611;28;20029;-49
2022/08/10 02:36:48;;;;;;;6.82;5.65;;;20.50;99.90;;;;;;5042946;28;20078;-47
2022/08/10 02:39:16;;;;;;;9.05;7.22;;;20.50;99.90;;;;;;5033384;28;20086;-47
2022/08/10 02:41:51;;;;;;;8.73;7.15;;;20.50;99.90;;;;;;5041169;28;20076;-48
2022/08/10 02:44:43;;;;;;;10.10;7.75;;;20.50;99.90;;;;;;5040118;28;20369;-49
2022/08/10 02:47:20;;;;;;;8.60;7.70;;;20.50;99.90;;;;;;4989752;28;20046;-49
2022/08/10 02:49:55;;;;;;;7.82;7.03;;;20.50;99.90;;;;;;4989163;28;20129;-49
2022/08/10 02:52:27;;;;;;;10.20;7.72;;;20.50;99.90;;;;;;4991109;28;20117;-48
2022/08/10 02:55:02;;;;;;;8.00;7.10;;;20.50;99.90;;;;;;4993005;28;20026;-47
2022/08/10 02:57:35;;;;;;;10.50;8.13;;;20.50;99.90;;;;;;4989021;28;20073;-47
2022/08/10 03:00:07;;;;;;;8.55;7.57;;;20.50;99.90;;;;;;4992876;28;20378;-48
2022/08/10 03:02:36;;;;;;;12.52;9.30;;;20.40;99.90;;;;;;4953279;28;20042;-47
2022/08/10 03:05:17;;;;;;;8.88;7.90;;;20.50;99.90;;;;;;4992781;28;20189;-47
2022/08/10 03:07:52;;;;;;;8.85;6.60;;;20.40;99.90;;;;;;4992802;28;20103;-47
2022/08/10 03:10:38;;;;;;;9.02;8.13;;;20.40;99.90;;;;;;4989953;28;20096;-50
2022/08/10 03:13:07;;;;;;;10.18;8.02;;;20.40;99.90;;;;;;4993329;28;20121;-50
2022/08/10 03:15:35;;;;;;;9.52;7.82;;;20.40;99.90;;;;;;4992636;28;20070;-49
2022/08/10 03:18:02;;;;;;;9.65;7.32;;;20.40;99.90;;;;;;4992495;28;20042;-50
2022/08/10 03:20:40;;;;;;;9.95;8.15;;;20.30;99.90;;;;;;4992279;28;20104;-49
2022/08/10 03:23:15;;;;;;;8.82;7.50;;;20.30;99.90;;;;;;4996089;28;20041;-48
2022/08/10 03:25:48;;;;;;;8.93;7.80;;;20.30;99.90;;;;;;5043122;28;20040;-49
2022/08/10 03:28:15;;;;;;;9.52;7.85;;;20.30;99.90;;;;;;5044260;28;20051;-47
2022/08/10 03:30:42;;;;;;;8.07;7.07;;;20.40;99.90;;;;;;5044218;28;20052;-47
2022/08/10 03:33:09;;;;;;;8.98;7.65;;;20.40;99.90;;;;;;5043991;28;20087;-48
2022/08/10 03:35:35;;;;;;;8.20;7.40;;;20.40;99.90;;;;;;5044065;28;20029;-49
2022/08/10 03:38:02;;;;;;;8.52;7.50;;;20.30;99.90;;;;;;5043381;28;20373;-49
2022/08/10 03:40:30;;;;;;;7.82;7.07;;;20.30;99.90;;;;;;5041980;28;20029;-50
2022/08/10 03:42:58;;;;;;;9.45;7.30;;;20.30;99.90;;;;;;5043443;28;20102;-49
2022/08/10 03:59:03;;;;;;;8.75;7.85;;;21.10;99.90;;;;;;5100080;27;20398;-49
2022/08/10 04:01:29;;;;;;;11.20;8.57;;;21.00;99.90;;;;;;5096480;28;20383;-49
2022/08/10 04:03:55;;;;;;;13.10;8.13;;;20.90;99.90;;;;;;5051573;28;20098;-50
2022/08/10 04:06:21;;;;;;;10.20;9.02;;;20.90;99.90;;;;;;5053342;28;20040;-49
2022/08/10 04:08:46;;;;;;;10.20;9.20;;;20.90;99.90;;;;;;5089988;28;20060;-49
2022/08/10 04:11:13;;;;;;;9.75;8.75;;;20.90;99.90;;;;;;4993655;28;20051;-49
2022/08/10 04:13:39;;;;;;;8.88;7.97;;;20.90;99.90;;;;;;5088525;28;20086;-49
2022/08/10 04:16:05;;;;;;;10.85;9.73;;;20.90;99.90;;;;;;5084388;28;20024;-49
2022/08/10 04:18:32;;;;;;;9.35;7.68;;;20.90;99.90;;;;;;5052323;28;20395;-49
2022/08/10 04:21:05;;;;;;;11.70;8.75;;;20.90;99.90;;;;;;5087903;28;20089;-50
2022/08/10 04:23:33;;;;;;;9.13;8.27;;;20.90;99.90;;;;;;5087844;28;20028;-49
2022/08/10 04:25:59;;;;;;;9.48;7.95;;;21.00;99.90;;;;;;5089921;28;20035;-49
2022/08/10 04:28:25;;;;;;;9.68;8.68;;;21.10;99.90;;;;;;5089224;28;20057;-49
2022/08/10 04:30:53;;;;;;;11.07;9.45;;;21.20;99.90;;;;;;5051898;28;20032;-49
2022/08/10 04:33:22;;;;;;;12.57;9.52;;;21.20;99.90;;;;;;5088017;28;20612;-49
2022/08/10 04:35:49;;;;;;;11.48;8.90;;;21.30;99.90;;;;;;5089005;28;20036;-49
2022/08/10 04:38:17;;;;;;;11.25;8.65;;;21.30;99.90;;;;;;5057640;28;20037;-49
2022/08/10 04:40:45;;;;;;;9.45;7.82;;;21.40;99.90;;;;;;5087168;28;20032;-49
2022/08/10 04:43:12;;;;;;;10.70;9.13;;;21.40;99.90;;;;;;5086146;28;20031;-49
2022/08/10 04:45:41;;;;;;;10.07;9.07;;;21.40;99.90;;;;;;5084440;28;20056;-49
2022/08/10 04:48:07;;;;;;;10.65;9.55;;;21.40;99.90;;;;;;5085145;28;20090;-49
2022/08/10 04:50:33;;;;;;;10.30;8.85;;;21.50;99.90;;;;;;5031867;28;20084;-49
2022/08/10 04:52:58;;;;;;;10.00;8.25;;;21.40;99.90;;;;;;5030853;28;20040;-49
2022/08/10 04:55:24;;;;;;;9.98;8.93;;;21.50;99.90;;;;;;5087449;28;20024;-49
2022/08/10 04:57:50;;;;;;;9.75;8.25;;;21.60;99.90;;;;;;5041186;28;20499;-50
2022/08/10 05:00:16;;;;;;;13.30;8.48;;;21.60;99.90;;;;;;5015327;28;20042;-49
2022/08/10 05:02:41;;;;;;;10.10;8.68;;;21.60;99.90;;;;;;5035468;28;20033;-49
2022/08/10 05:05:08;;;;;;;8.60;7.80;;;21.50;99.90;;;;;;5034098;28;20487;-49
2022/08/10 05:07:33;;;;;;;10.55;9.30;;;21.40;99.90;;;;;;5037170;28;20056;-49
2022/08/10 05:09:59;;;;;;;13.73;7.93;;;21.30;99.90;;;;;;4993290;28;20583;-49
2022/08/10 05:12:26;;;;;;;9.85;8.95;;;21.30;99.90;;;;;;5013361;28;20041;-49
2022/08/10 05:14:51;;;;;;;9.98;8.95;;;21.40;99.90;;;;;;5006577;28;20051;-48
2022/08/10 05:17:18;;;;;;;8.93;8.02;;;21.30;99.90;;;;;;5035797;28;20125;-41
2022/08/10 05:19:44;;;;;;;10.20;9.10;;;21.30;99.90;;;;;;5033976;28;20022;-43
2022/08/10 05:22:09;;;;;;;10.23;8.98;;;21.30;99.90;;;;;;5034518;28;20036;-44
2022/08/10 05:24:36;;;;;;;10.50;9.48;;;21.40;99.90;;;;;;5030812;28;20042;-43
2022/08/10 05:27:02;;;;;;;10.75;9.02;;;21.40;99.90;;;;;;5033018;28;20052;-42
2022/08/10 05:29:27;;;;;;;10.40;8.63;;;21.40;99.90;;;;;;5022663;28;20037;-43
2022/08/10 05:31:54;;;;;;;9.40;8.07;;;21.40;99.90;;;;;;5023812;28;20091;-44
2022/08/10 05:34:25;;;;;;;10.88;8.52;;;21.50;99.90;;;;;;5012764;28;20041;-43
2022/08/10 05:36:52;;;;;;;11.27;9.98;;;21.50;99.90;;;;;;5022925;28;20069;-43
2022/08/10 05:39:19;;;;;;;12.77;9.48;;;21.50;99.90;;;;;;5022211;28;20190;-43
2022/08/10 05:41:47;;;;;;;12.63;9.38;;;21.50;99.90;;;;;;5025758;28;20481;-43
2022/08/10 05:44:13;;;;;;;11.65;7.95;;;21.50;99.90;;;;;;5021324;28;20175;-43
2022/08/10 05:46:40;;;;;;;11.35;8.80;;;21.40;99.90;;;;;;5020702;28;20103;-43
2022/08/10 05:49:05;;;;;;;11.82;8.93;;;21.50;99.90;;;;;;5021082;28;20408;-43
2022/08/10 05:51:31;;;;;;;12.10;7.75;;;21.50;99.90;;;;;;5026453;28;20036;-43
2022/08/10 05:53:58;;;;;;;9.27;8.35;;;21.70;99.90;;;;;;5021912;28;20103;-43
2022/08/10 05:56:25;;;;;;;10.30;9.20;;;21.70;99.90;;;;;;5024767;28;20017;-43
2022/08/10 05:58:51;;;;;;;10.80;7.78;;;21.70;99.90;;;;;;5024026;28;20189;-43
2022/08/10 06:01:19;;;;;;;11.75;8.10;;;21.90;99.90;;;;;;5025648;28;20123;-43
2022/08/10 06:03:57;;;;;;;12.35;8.13;;;21.90;99.90;;;;;;5055757;28;20392;-43
2022/08/10 06:06:26;;;;;;;9.65;8.10;;;22.00;99.90;;;;;;5052849;28;20407;-43
2022/08/10 06:08:53;;;;;;;12.50;7.97;;;22.10;99.90;;;;;;5055148;28;20029;-43
2022/08/10 06:11:21;;;;;;;8.70;7.75;;;22.20;99.90;;;;;;5053433;28;20033;-43
2022/08/10 06:16:34;;;;;;;10.32;8.45;;;22.40;99.90;;;;;;5054838;28;20140;-43
2022/08/10 06:19:00;;;;;;;7.57;6.38;;;22.50;99.90;;;;;;5052472;28;20029;-43
2022/08/10 06:21:27;;;;;;;9.43;7.63;;;22.60;99.90;;;;;;5046412;28;20045;-43
2022/08/10 06:23:54;;;;;;;9.20;7.85;;;22.60;99.90;;;;;;5052330;28;20116;-43
2022/08/10 06:26:20;;;;;;;8.32;6.30;;;22.60;99.90;;;;;;5053888;28;20021;-43
2022/08/10 06:29:05;;;;;;;8.00;6.95;;;22.70;99.90;;;;;;5052397;28;20144;-44
2022/08/10 06:48:27;;;;;;;7.32;6.35;;;23.10;99.90;;;;;;5047629;28;20048;-43
2022/08/10 06:51:05;;;;;;;8.77;6.78;;;23.30;99.90;;;;;;5062315;28;20399;-44
2022/08/10 06:53:35;;;;;;;8.40;6.47;;;23.50;99.90;;;;;;5031830;28;20045;-43
2022/08/10 06:56:14;;;;;;;7.07;6.03;;;23.50;99.90;;;;;;5059389;28;20033;-44
2022/08/10 06:58:45;;;;;;;9.48;7.13;;;;;;;;;;5053195;28;20053;-44
2022/08/10 07:01:14;;;;;;;16.23;7.15;;;23.90;99.90;;;;;;5055526;28;20090;-43
2022/08/10 07:03:47;;;;;;;7.25;5.90;;;24.00;99.90;;;;;;5054173;28;20048;-44
2022/08/10 07:06:15;;;;;;;8.60;6.68;;;24.20;99.90;;;;;;5054116;28;20048;-43
2022/08/10 07:08:42;;;;;;;9.90;6.25;;;24.50;99.90;;;;;;5060398;28;20375;-43
2022/08/10 07:11:08;;;;;;;8.10;6.05;;;24.60;99.90;;;;;;5053195;28;20037;-43
2022/08/10 07:13:37;;;;;;;7.13;5.80;;;;;;;;;;5056992;28;20480;-44
2022/08/10 07:16:06;;;;;;;6.97;6.28;;;25.10;99.90;;;;;;5053783;28;20052;-43
2022/08/10 07:18:34;;;;;;;6.60;5.05;;;25.30;99.90;;;;;;5020336;28;20087;-44
2022/08/10 07:21:00;;;;;;;7.43;5.05;;;25.40;99.90;;;;;;5061475;28;20025;-44
2022/08/10 07:23:27;;;;;;;7.60;5.07;;;25.60;99.90;;;;;;5059538;28;20036;-44
2022/08/10 07:25:53;;;;;;;7.18;5.18;;;25.60;99.90;;;;;;5056835;28;20029;-43
2022/08/10 07:28:21;;;;;;;7.07;4.82;;;25.30;99.90;;;;;;5048861;28;20043;-43
2022/08/10 07:30:50;;;;;;;8.43;4.20;;;25.60;99.90;;;;;;5035039;28;20450;-45
2022/08/10 07:33:18;;;;;;;8.80;4.95;;;25.50;99.90;;;;;;5056837;28;20033;-44
2022/08/10 07:35:46;;;;;;;4.65;3.63;;;25.80;99.90;;;;;;5057489;28;20040;-44
2022/08/10 07:38:32;;;;;;;4.10;3.08;;;25.90;99.90;;;;;;5064664;28;20077;-43
2022/08/10 07:41:00;;;;;;;5.78;3.92;;;25.80;99.90;;;;;;5006809;28;20507;-44
2022/08/10 07:43:30;;;;;;;4.30;3.47;;;25.70;99.90;;;;;;5035044;28;20563;-45
2022/08/10 07:45:57;;;;;;;6.60;3.72;;;25.80;99.90;;;;;;5054639;28;20141;-43
2022/08/10 07:48:28;;;;;;;3.85;3.28;;;;;;;;;;5015871;28;20079;-44
2022/08/10 07:50:59;;;;;;;4.65;3.17;;;26.30;99.90;;;;;;5058428;28;20036;-44
2022/08/10 07:53:29;;;;;;;4.22;3.50;;;26.40;99.90;;;;;;5056888;28;20025;-43
2022/08/10 07:55:56;;;;;;;4.60;3.25;;;25.90;99.90;;;;;;5009972;28;20059;-43
2022/08/10 07:58:27;;;;;;;6.50;3.63;;;26.20;99.90;;;;;;5048158;28;20503;-53
2022/08/10 08:00:53;;;;;;;6.32;3.50;;;26.20;99.90;;;;;;5047202;28;20033;-48
2022/08/10 08:03:23;;;;;;;5.03;3.25;;;26.10;99.90;;;;;;5047492;28;20071;-45
2022/08/10 08:05:50;;;;;;;8.30;3.20;;;26.10;99.90;;;;;;5048417;28;20028;-46
2022/08/10 08:08:18;;;;;;;10.13;4.20;;;26.20;99.90;;;;;;5051423;28;20055;-47
2022/08/10 08:10:45;;;;;;;4.03;3.30;;;26.20;99.90;;;;;;5049078;28;20480;-47
2022/08/10 08:13:12;;;;;;;3.65;3.03;;;26.30;99.90;;;;;;5045351;28;20025;-55
2022/08/10 08:15:39;;;;;;;4.25;2.88;;;;;;;;;;5008750;28;20049;-55
2022/08/10 08:18:06;;;;;;;3.45;2.78;;;;;;;;;;5049468;28;20052;-47
2022/08/10 08:20:33;;;;;;;4.13;3.10;;;;;;;;;;5049957;28;20051;-47
2022/08/10 08:22:59;;;;;;;7.63;2.92;;;;;;;;;;5016415;28;20051;-54
2022/08/10 08:25:25;;;;;;;4.18;3.03;;;;;;;;;;5047142;28;20029;-48
2022/08/10 08:27:55;;;;;;;8.18;3.42;;;27.00;99.90;;;;;;4997898;28;20037;-51
2022/08/10 08:30:22;;;;;;;6.13;2.95;;;27.00;99.90;;;;;;5032177;28;20376;-48
2022/08/10 08:32:49;;;;;;;4.05;3.10;;;27.10;99.90;;;;;;5051182;28;20490;-49
2022/08/10 08:35:18;;;;;;;4.55;2.72;;;27.10;99.90;;;;;;5052690;28;20415;-50
2022/08/10 08:37:45;;;;;;;3.95;2.90;;;;;;;;;;5033003;28;20041;-48
2022/08/10 08:40:23;;;;;;;5.75;3.15;;;27.50;99.90;;;;;;5025548;28;20032;-49
2022/08/10 08:43:02;;;;;;;6.38;3.13;;;;;;;;;;5035973;28;20055;-48
2022/08/10 08:45:49;;;;;;;3.65;2.63;;;27.70;99.90;;;;;;5036366;28;20037;-48
2022/08/10 08:48:30;;;;;;;10.70;4.38;;;;;;;;;;5053803;28;20132;-48
2022/08/10 08:51:11;;;;;;;3.72;3.00;;;28.00;99.90;;;;;;5004861;28;20114;-48
2022/08/10 08:53:44;;;;;;;5.78;2.80;;;;;;;;;;5053876;28;20559;-48
2022/08/10 08:56:23;;;;;;;4.35;3.20;;;;;;;;;;5051568;28;20074;-47
2022/08/10 08:59:11;;;;;;;4.30;3.40;;;;;;;;;;5055019;28;20061;-46
2022/08/10 09:01:57;;;;;;;6.95;3.03;;;29.00;99.90;;;;;;5035039;28;20124;-45
2022/08/10 09:04:33;;;;;;;4.45;2.85;;;29.10;99.90;;;;;;5055326;28;20051;-46
2022/08/10 09:07:26;;;;;;;5.72;3.20;;;29.40;99.90;;;;;;5058494;28;20144;-46
2022/08/10 09:10:20;;;;;;;6.40;2.95;;;29.00;99.90;;;;;;5062913;28;20709;-46
2022/08/10 09:13:10;;;;;;;5.00;3.20;;;29.00;99.90;;;;;;5001472;28;20032;-46
2022/08/10 09:15:55;;;;;;;4.00;3.05;;;29.10;99.90;;;;;;5029626;28;20029;-46
2022/08/10 09:18:33;;;;;;;3.78;3.20;;;29.00;99.90;;;;;;5031332;28;20029;-46
2022/08/10 09:21:27;;;;;;;3.70;2.83;;;29.10;99.90;;;;;;5030076;28;20033;-46
2022/08/10 09:24:19;;;;;;;5.70;3.58;;;28.60;99.90;;;;;;5029841;28;20107;-46
2022/08/10 09:26:50;;;;;;;8.15;3.78;;;28.40;99.90;;;;;;5035397;28;20041;-46
2022/08/10 09:29:26;;;;;;;4.10;3.53;;;28.60;99.90;;;;;;5012192;28;20037;-46
2022/08/10 09:32:10;;;;;;;5.03;3.33;;;28.40;99.90;;;;;;5030464;28;20029;-46
2022/08/10 09:34:56;;;;;;;7.32;4.07;;;28.40;99.90;;;;;;5033830;28;20043;-47
2022/08/10 09:37:43;;;;;;;5.15;3.53;;;28.20;99.90;;;;;;5009502;28;20044;-46
2022/08/10 09:40:23;;;;;;;9.55;4.28;;;27.70;99.90;;;;;;5042147;28;20595;-46
2022/08/10 09:43:13;;;;;;;8.27;3.13;;;27.30;99.90;;;;;;5039053;28;20388;-46
2022/08/10 09:46:03;;;;;;;9.77;3.85;;;27.30;99.90;;;;;;5059594;28;20040;-46
2022/08/10 09:48:38;;;;;;;4.30;3.28;;;27.30;99.90;;;;;;5055763;28;20062;-46
2022/08/10 09:51:10;;;;;;;7.35;4.10;;;;;;;;;;5056141;28;20037;-46
2022/08/10 09:53:51;;;;;;;5.50;3.83;;;;;;;;;;5058369;28;20128;-46
2022/08/10 09:56:30;;;;;;;5.38;3.58;;;;;;;;;;5056890;28;20144;-46
2022/08/10 09:59:14;;;;;;;5.53;3.70;;;;;;;;;;5052341;28;20061;-49
2022/08/10 10:01:43;;;;;;;3.75;3.20;;;;;;;;;;5053391;28;20167;-50
2022/08/10 10:04:21;;;;;;;6.07;4.28;;;;;;;;;;5016218;28;20032;-50
2022/08/10 10:06:57;;;;;;;3.45;3.05;;;;;;;;;;5021228;28;20052;-47
2022/08/10 10:09:38;;;;;;;4.97;3.67;;;;;;;;;;5048713;28;20029;-47
2022/08/10 10:12:10;;;;;;;5.38;3.67;;;;;;;;;;5057896;28;20017;-48
2022/08/10 10:15:19;;;;;;;5.75;3.60;;;;;;;;;;5054047;28;20097;-45
2022/08/10 10:17:35;;;;;;;5.07;3.30;;;;;;;;;;5014147;28;20481;-49
2022/08/10 10:20:20;;;;;;;4.53;3.65;;;;;;;;;;5013498;28;20112;-48
2022/08/10 10:22:49;;;;;;;6.15;3.30;;;;;;;;;;5013223;28;20496;-49
2022/08/10 10:25:42;;;;;;;3.63;2.97;;;28.90;99.90;;;;;;5011250;28;20036;-47
2022/08/10 10:28:31;;;;;;;3.40;2.85;;;29.50;99.90;;;;;;5011012;28;20061;-46
2022/08/10 10:31:19;;;;;;;4.32;3.28;;;29.00;99.90;;;;;;5006425;28;20069;-46
2022/08/10 10:34:02;;;;;;;3.92;3.00;;;28.50;99.90;;;;;;5009910;28;20030;-48
2022/08/10 10:36:29;;;;;;;7.53;3.22;;;28.80;99.90;;;;;;5011861;28;20125;-46
2022/08/10 10:38:58;;;;;;;3.60;3.05;;;28.50;99.90;;;;;;4974279;28;20061;-47
2022/08/10 10:41:27;;;;;;;3.72;3.33;;;28.70;99.90;;;;;;5008566;28;20060;-46
2022/08/10 10:43:59;;;;;;;6.50;2.90;;;28.70;99.90;;;;;;4982843;28;20042;-44
2022/08/10 10:46:43;;;;;;;;;;;28.50;99.90;;;;;;5009695;28;20057;-45
2022/08/10 10:49:49;;;;;;;6.97;3.08;;;28.90;99.90;;;;;;5041321;28;19916;-44
2022/08/10 10:52:31;;;;;;;3.97;2.63;;;;;;;;;;4979157;28;20041;-46
2022/08/10 10:55:09;;;;;;;4.57;3.20;;;29.40;99.90;;;;;;5052438;28;20025;-49
2022/08/10 10:57:50;;;;;;;3.72;2.92;;;29.50;99.90;;;;;;5052995;28;20053;-46
2022/08/10 11:00:20;;;;;;;4.15;2.45;;;29.50;99.90;;;;;;5050713;28;20020;-46
2022/08/10 11:03:15;;;;;;;3.45;2.85;;;29.30;99.90;;;;;;5033722;28;20041;-47
2022/08/10 11:06:19;;;;;;;4.93;3.03;;;29.90;99.90;;;;;;5004908;28;20060;-46
2022/08/10 11:08:48;;;;;;;3.20;2.83;;;30.20;99.90;;;;;;5052048;28;20037;-45
2022/08/10 11:11:22;;;;;;;3.55;2.50;;;29.70;99.90;;;;;;5058475;28;20032;-47
2022/08/10 11:14:01;;;;;;;5.53;2.95;;;29.70;99.90;;;;;;5048984;28;20427;-46
2022/08/10 11:16:30;;;;;;;3.67;2.83;;;;;;;;;;5053273;28;20178;-46
2022/08/10 11:19:17;;;;;;;3.50;2.80;;;30.10;99.90;;;;;;5059001;28;20025;-47
2022/08/10 11:21:54;;;;;;;3.78;2.50;;;30.20;99.90;;;;;;5021201;28;20037;-44
2022/08/10 11:24:25;;;;;;;5.97;2.42;;;30.20;99.90;;;;;;5055137;28;20037;-45
2022/08/10 11:26:59;;;;;;;3.40;2.90;;;29.80;99.90;;;;;;5049602;28;20056;-45
2022/08/10 11:29:33;;;;;;;5.68;3.30;;;29.70;99.90;;;;;;5053938;28;20032;-45
2022/08/10 11:32:05;;;;;;;2.88;2.50;;;29.80;99.90;;;;;;5017058;28;20522;-46
2022/08/10 11:34:41;;;;;;;3.88;2.92;;;29.70;99.90;;;;;;5057417;28;20033;-45
2022/08/10 11:37:20;;;;;;;5.50;2.80;;;29.70;99.90;;;;;;5047959;28;20044;-45
2022/08/10 11:40:00;;;;;;;4.03;2.50;;;30.10;99.90;;;;;;5049673;28;20115;-45
2022/08/10 11:42:37;;;;;;;3.08;2.63;;;30.10;99.90;;;;;;5059578;28;20075;-45
2022/08/10 11:45:35;;;;;;;3.58;2.88;;;30.50;99.90;;;;;;5054036;28;20071;-45
2022/08/10 11:48:25;;;;;;;4.00;2.53;;;30.60;98.70;;;;;;5053737;28;20564;-46
2022/08/10 11:50:56;;;;;;;3.28;2.28;;;30.10;97.30;;;;;;5050156;28;20028;-45
2022/08/10 11:53:28;;;;;;;3.30;2.40;;;;;;;;;;5034743;28;20032;-45
2022/08/10 11:55:56;;;;;;;4.00;2.25;;;30.60;97.00;;;;;;5057740;28;20104;-45
2022/08/10 12:01:14;;;;;;;3.78;2.60;;;30.80;95.20;;;;;;5055133;28;20086;-45
2022/08/10 12:03:41;;;;;;;2.85;2.35;;;;;;;;;;5015972;28;20116;-45
2022/08/10 12:06:12;;;;;;;4.47;2.80;;;;;;;;;;4989989;28;20039;-45
2022/08/10 12:08:38;;;;;;;3.25;2.35;;;;;;;;;;5009436;28;20133;-46
2022/08/10 12:11:04;;;;;;;5.72;2.78;;;31.60;99.90;;;;;;5014352;28;20084;-45
2022/08/10 12:13:47;;;;;;;3.63;2.10;;;31.60;94.10;;;;;;4974860;28;20053;-46
2022/08/10 12:16:19;;;;;;;4.13;2.38;;;31.50;94.20;;;;;;5013611;28;20069;-45
2022/08/10 12:18:53;;;;;;;4.88;2.70;;;31.20;93.90;;;;;;4995527;28;20073;-45
2022/08/10 12:21:25;;;;;;;4.05;2.67;;;30.50;94.10;;;;;;4977241;28;20038;-45
2022/08/10 12:24:22;;;;;;;4.50;2.20;;;30.60;94.30;;;;;;5012968;28;20432;-45
2022/08/10 12:27:06;;;;;;;3.78;2.13;;;30.10;95.10;;;;;;4996806;28;20081;-46
2022/08/10 12:29:44;;;;;;;3.70;2.35;;;29.80;98.50;;;;;;5014709;28;20034;-45
2022/08/10 12:32:21;;;;;;;2.80;2.38;;;29.40;96.20;;;;;;5015266;28;20069;-45
2022/08/10 12:34:54;;;;;;;7.43;2.70;;;29.30;95.80;;;;;;5014332;28;20506;-46
2022/08/10 12:37:45;;;;;;;3.55;2.78;;;30.00;95.50;;;;;;5037756;28;20369;-46
2022/08/10 12:40:22;;;;;;;3.17;2.35;;;30.30;99.90;;;;;;5056676;28;20423;-47
2022/08/10 12:42:48;;;;;;;4.60;2.80;;;;;;;;;;5054233;28;20031;-45
2022/08/10 12:45:33;;;;;;;3.60;2.22;;;;;;;;;;5055754;28;20025;-46
2022/08/10 12:48:03;;;;;;;3.97;2.42;;;;;;;;;;5057986;28;20040;-45
2022/08/10 12:50:41;;;;;;;4.38;2.25;;;31.40;94.40;;;;;;5058090;28;20025;-45
2022/08/10 12:53:24;;;;;;;6.95;2.47;;;;;;;;;;5056547;28;20037;-45
2022/08/10 12:55:51;;;;;;;4.57;2.05;;;32.30;92.90;;;;;;5035649;28;20035;-45
2022/08/10 12:58:19;;;;;;;4.68;2.28;;;32.00;92.90;;;;;;5036595;28;20036;-45
2022/08/10 13:00:48;;;;;;;4.05;2.70;;;32.10;92.70;;;;;;5054418;28;20021;-46
2022/08/10 13:03:15;;;;;;;3.17;2.35;;;32.30;92.60;;;;;;5052765;28;20072;-45
2022/08/10 13:05:43;;;;;;;5.00;2.65;;;32.20;92.90;;;;;;4995619;28;20040;-45
2022/08/10 13:11:02;;;;;;;3.00;2.05;;;31.30;93.70;;;;;;5055391;28;20103;-45
2022/08/10 13:13:33;;;;;;;4.15;3.05;;;30.50;93.50;;;;;;5017212;28;20435;-46
2022/08/10 13:16:00;;;;;;;2.90;2.33;;;30.40;94.80;;;;;;5002062;28;20032;-46
2022/08/10 13:18:32;;;;;;;7.32;3.97;;;30.00;97.00;;;;;;5056179;28;20031;-47
2022/08/10 13:21:11;;;;;;;3.85;2.65;;;30.30;97.80;;;;;;5054520;28;20172;-46
2022/08/10 13:23:57;;;;;;;5.00;3.45;;;30.20;97.80;;;;;;5030107;28;20044;-46
2022/08/10 13:26:26;;;;;;;4.70;3.30;;;30.50;97.90;;;;;;5055839;28;20029;-45
2022/08/10 13:28:58;;;;;;;5.22;2.90;;;30.40;97.80;;;;;;5059097;28;20036;-46
2022/08/10 13:31:28;;;;;;;3.53;2.88;;;29.90;97.60;;;;;;5057953;28;20112;-46
2022/08/10 13:34:07;;;;;;;5.32;2.88;;;30.10;97.70;;;;;;5059672;28;20567;-47
2022/08/10 13:36:39;;;;;;;9.13;3.97;;;30.00;97.50;;;;;;5052263;28;20072;-46
2022/08/10 13:39:05;;;;;;;5.88;2.95;;;30.10;98.20;;;;;;5016712;28;20047;-48
2022/08/10 13:41:37;;;;;;;5.38;2.92;;;29.70;98.70;;;;;;5018371;28;20033;-48
2022/08/10 13:44:04;;;;;;;3.65;2.75;;;29.20;99.00;;;;;;4982149;28;20448;-51
2022/08/10 13:46:30;;;;;;;4.90;2.83;;;29.20;99.10;;;;;;5064753;28;20152;-47
2022/08/10 13:48:58;;;;;;;3.83;3.13;;;29.00;99.90;;;;;;5002542;28;20048;-47
2022/08/10 13:51:28;;;;;;;4.43;3.30;;;29.00;99.50;;;;;;5059160;28;20415;-45
2022/08/10 13:53:57;;;;;;;5.30;3.50;;;29.00;99.30;;;;;;5058661;28;20064;-45
2022/08/10 13:56:26;;;;;;;3.97;2.88;;;28.60;99.90;;;;;;5018305;28;20520;-45
2022/08/10 13:58:54;;;;;;;7.00;3.33;;;28.30;99.90;;;;;;5054613;28;20050;-45
2022/08/10 14:01:32;;;;;;;7.38;3.67;;;28.30;99.90;;;;;;5055621;28;20122;-44
2022/08/10 14:04:00;;;;;;;5.85;3.72;;;27.90;99.90;;;;;;5059844;28;20028;-45